Terminal Aerodrome Forecast
Issued by NWS

Home | Current Version | Previous Version | Graphics & Text | Print | Product List | Glossary On
Versions: 1 2 3 4 5 6 7 8 9 10 11 12 13 14 15 16 17 18 19 20
635
FTUS43 KMPX 241120
TAFAXN
TAF
KAXN 241120Z 2412/2512 12013KT 2SM BR OVC003
     FM241400 13015G22KT 6SM BR OVC006
     FM241900 14016G23KT P6SM SCT010 OVC020
     FM242200 15016G24KT P6SM VCTS SCT020CB OVC035
      TEMPO 2423/2502 5SM SHRA BKN020
     FM250300 17010KT 4SM BR OVC025
     FM250900 22008KT P6SM FEW050=

USA.gov is the U.S. government's official web portal to all federal, state and local government web resources and services.